Archival Weather

Agadez

Agadez, Niger (DRZA)

Report from: Friday, February 23, 2024 7:00 PM WAT
Current time: Wednesday, April 24, 2024 7:19 PM WAT

Current weather – Weather history – Daily summaries
Weather forecast

Temperature27.0°C (80.6°F)
Heat index25.8°C (78.5°F)
Dew point-10.0°C (14.0°F)
Winds 7 kts (3.6 m/s, 8.1 mph) Southeast (130°)
Clouds Sky clear
Altimeter29.94 in.Hg (1014 mB)
Relative humidity8 %
Density altitude1,415 ft. (431 m)
Remarks Ceiling and visibility OK
Flight conditions Visual Meteorological Conditions
Raw dataDRZA 231800Z 13007KT CAVOK 27/M10 Q1014
An error has occurred. This application may no longer respond until reloaded. Reload 🗙